createdAt,value
2023-02-02T00:01:23.096Z,5.63
2023-02-02T00:03:51.563Z,8.63
2023-02-02T00:06:19.102Z,6.80
2023-02-02T00:08:47.119Z,5.37
2023-02-02T00:11:16.794Z,8.73
2023-02-02T00:13:44.457Z,8.90
2023-02-02T00:16:48.832Z,7.40
2023-02-02T00:19:18.496Z,7.33
2023-02-02T00:21:46.893Z,10.87
2023-02-02T00:24:17.922Z,7.77
2023-02-02T00:26:52.535Z,4.30
2023-02-02T00:29:21.642Z,6.20
2023-02-02T00:31:49.671Z,6.70
2023-02-02T00:34:18.150Z,6.73
2023-02-02T00:36:46.446Z,8.87
2023-02-02T00:39:17.432Z,12.83
2023-02-02T00:41:47.787Z,20.60
2023-02-02T00:44:34.212Z,8.90
2023-02-02T00:47:01.882Z,4.03
2023-02-02T00:49:29.564Z,10.83
2023-02-02T00:51:57.115Z,5.40
2023-02-02T00:54:24.572Z,4.63
2023-02-02T00:56:52.043Z,6.73
2023-02-02T00:59:20.820Z,8.10
2023-02-02T01:01:48.464Z,10.93
2023-02-02T01:04:15.951Z,6.87
2023-02-02T01:06:43.436Z,10.30
2023-02-02T01:09:10.977Z,15.40
2023-02-02T01:11:38.541Z,7.10
2023-02-02T01:14:06.305Z,6.50
2023-02-02T01:16:35.234Z,21.00
2023-02-02T01:19:03.087Z,9.43
2023-02-02T01:21:30.583Z,9.93
2023-02-02T01:23:58.087Z,8.47
2023-02-02T01:26:25.589Z,7.83
2023-02-02T01:28:53.047Z,7.43
2023-02-02T01:31:21.573Z,7.13
2023-02-02T01:33:51.180Z,4.30
2023-02-02T01:36:20.414Z,3.80
2023-02-02T01:38:49.022Z,4.83
2023-02-02T01:41:18.358Z,8.20
2023-02-02T01:43:58.367Z,41.57
2023-02-02T01:46:28.697Z,11.93
2023-02-02T01:49:10.370Z,4.93
2023-02-02T01:51:43.725Z,7.10
2023-02-02T01:54:15.982Z,7.33
2023-02-02T01:56:50.202Z,3.70
2023-02-02T01:59:19.195Z,6.83
2023-02-02T02:01:48.477Z,5.10
2023-02-02T02:04:17.408Z,3.00
2023-02-02T02:06:45.340Z,9.60
2023-02-02T02:09:13.622Z,4.63
2023-02-02T02:11:41.126Z,7.77
2023-02-02T02:14:28.914Z,5.23
2023-02-02T02:17:13.490Z,6.77
2023-02-02T02:20:46.149Z,8.80
2023-02-02T02:24:08.472Z,2.27
2023-02-02T02:26:56.378Z,6.30
2023-02-02T02:29:51.762Z,2.80
2023-02-02T02:32:28.363Z,2.23
2023-02-02T02:35:05.840Z,6.90
2023-02-02T02:37:40.206Z,3.20
2023-02-02T02:40:14.947Z,3.80
2023-02-02T02:42:47.702Z,7.87
2023-02-02T02:45:15.608Z,14.60
2023-02-02T02:47:44.829Z,23.40
2023-02-02T02:50:12.708Z,29.93
2023-02-02T02:52:41.618Z,11.30
2023-02-02T02:55:11.498Z,18.00
2023-02-02T02:57:50.155Z,9.10
2023-02-02T03:00:34.594Z,6.13
2023-02-02T03:03:13.832Z,4.37
2023-02-02T03:05:47.874Z,4.53
2023-02-02T03:08:21.111Z,4.33
2023-02-02T03:10:49.237Z,4.43
2023-02-02T03:13:17.749Z,4.83
2023-02-02T03:15:46.471Z,4.83
2023-02-02T03:18:17.698Z,4.40
2023-02-02T03:20:46.298Z,4.53
2023-02-02T03:23:13.828Z,5.33
2023-02-02T03:25:42.360Z,4.60
2023-02-02T03:28:10.117Z,4.50
2023-02-02T03:30:39.226Z,5.17
2023-02-02T03:33:07.725Z,6.63
2023-02-02T03:35:36.579Z,6.33
2023-02-02T03:38:04.729Z,7.00
2023-02-02T03:40:32.243Z,6.80
2023-02-02T03:42:59.812Z,6.80
2023-02-02T03:45:28.691Z,9.07
2023-02-02T03:47:56.185Z,7.27
2023-02-02T03:50:25.117Z,8.67
2023-02-02T03:52:54.880Z,19.17
2023-02-02T03:55:22.701Z,7.83
2023-02-02T03:57:50.409Z,8.43
2023-02-02T04:00:18.378Z,7.40
2023-02-02T04:02:45.887Z,7.70
2023-02-02T04:05:13.427Z,9.03
2023-02-02T04:07:41.014Z,7.57
2023-02-02T04:10:11.373Z,9.07
2023-02-02T04:12:38.889Z,9.20
2023-02-02T04:15:07.589Z,11.57
2023-02-02T04:17:35.312Z,11.23
2023-02-02T04:20:03.022Z,8.33
2023-02-02T04:22:30.515Z,8.33
2023-02-02T04:24:58.012Z,8.87
2023-02-02T04:27:26.848Z,9.77
2023-02-02T04:29:54.316Z,8.63
2023-02-02T04:32:21.820Z,7.80
2023-02-02T04:34:49.265Z,12.37
2023-02-02T04:37:16.788Z,8.37
2023-02-02T04:39:44.293Z,9.60
2023-02-02T04:42:11.762Z,7.90
2023-02-02T04:44:40.829Z,12.07
2023-02-02T04:47:08.287Z,10.23
2023-02-02T04:49:35.749Z,12.83
2023-02-02T04:52:03.213Z,11.20
2023-02-02T04:54:30.905Z,10.07
2023-02-02T04:56:58.369Z,7.73
2023-02-02T04:59:28.722Z,8.17
2023-02-02T05:01:57.684Z,7.77
2023-02-02T05:04:25.298Z,8.43
2023-02-02T05:06:52.792Z,6.53
2023-02-02T05:09:20.281Z,6.43
2023-02-02T05:11:47.750Z,8.40
2023-02-02T05:14:18.339Z,9.30
2023-02-02T05:16:45.935Z,9.50
2023-02-02T05:19:16.837Z,9.03
2023-02-02T05:21:45.683Z,7.10
2023-02-02T05:24:13.635Z,11.97
2023-02-02T05:26:41.163Z,12.47
2023-02-02T05:29:09.196Z,10.10
2023-02-02T05:31:36.797Z,8.63
2023-02-02T05:34:06.717Z,7.63
2023-02-02T05:36:35.549Z,7.73
2023-02-02T05:39:03.051Z,7.10
2023-02-02T05:41:30.526Z,7.97
2023-02-02T05:44:00.026Z,7.17
2023-02-02T05:46:27.543Z,7.90
2023-02-02T05:48:55.162Z,7.77
2023-02-02T05:51:26.470Z,5.07
2023-02-02T05:53:55.341Z,6.93
2023-02-02T05:56:22.800Z,8.30
2023-02-02T05:58:50.406Z,6.50
2023-02-02T06:01:19.275Z,8.27
2023-02-02T06:03:46.798Z,6.27
2023-02-02T06:06:14.553Z,8.60
2023-02-02T06:08:42.013Z,8.57
2023-02-02T06:11:11.806Z,8.60
2023-02-02T06:13:39.673Z,6.60
2023-02-02T06:16:08.315Z,4.90
2023-02-02T06:18:36.852Z,4.63
2023-02-02T06:21:06.908Z,4.93
2023-02-02T06:23:35.358Z,5.93
2023-02-02T06:26:04.400Z,5.00
2023-02-02T06:28:33.380Z,4.50
2023-02-02T06:31:05.476Z,5.80
2023-02-02T06:33:33.003Z,4.20
2023-02-02T06:36:01.935Z,3.97
2023-02-02T06:38:29.724Z,4.93
2023-02-02T06:41:00.439Z,4.10
2023-02-02T06:43:28.053Z,4.27
2023-02-02T06:45:58.138Z,4.27
2023-02-02T06:48:25.985Z,3.97
2023-02-02T06:50:53.970Z,3.77
2023-02-02T06:53:23.049Z,4.53
2023-02-02T06:55:54.253Z,3.90
2023-02-02T06:58:21.744Z,6.30
2023-02-02T07:00:49.243Z,3.40
2023-02-02T07:03:18.911Z,3.30
2023-02-02T07:05:46.363Z,4.60
2023-02-02T07:08:14.023Z,4.40
2023-02-02T07:11:14.602Z,3.60
2023-02-02T07:13:30.379Z,3.63
2023-02-02T07:15:58.219Z,4.20
2023-02-02T07:18:27.124Z,5.10
2023-02-02T07:20:54.586Z,4.63
2023-02-02T07:23:22.062Z,4.93
2023-02-02T07:25:52.911Z,4.87
2023-02-02T07:28:20.626Z,4.43
2023-02-02T07:30:48.218Z,4.37
2023-02-02T07:33:15.864Z,3.50
2023-02-02T07:35:44.857Z,4.53
2023-02-02T07:38:12.503Z,4.87
2023-02-02T07:40:40.089Z,4.10
2023-02-02T07:43:07.847Z,5.50
2023-02-02T07:45:36.127Z,6.53
2023-02-02T07:48:04.012Z,8.07
2023-02-02T07:50:32.182Z,7.50
2023-02-02T07:53:01.581Z,8.97
2023-02-02T07:55:29.569Z,9.57
2023-02-02T07:57:59.032Z,7.60
2023-02-02T08:00:27.124Z,8.73
2023-02-02T08:02:54.916Z,11.13
2023-02-02T08:05:23.377Z,9.97
2023-02-02T08:07:51.311Z,8.63
2023-02-02T08:10:20.758Z,8.03
2023-02-02T08:12:48.807Z,9.23
2023-02-02T08:15:19.309Z,10.97
2023-02-02T08:17:49.928Z,11.73
2023-02-02T08:20:17.802Z,9.87
2023-02-02T08:22:45.593Z,9.70
2023-02-02T08:25:13.363Z,10.90
2023-02-02T08:27:44.908Z,11.77
2023-02-02T08:30:13.951Z,12.67
2023-02-02T08:32:47.617Z,11.00
2023-02-02T08:35:15.914Z,20.63
2023-02-02T08:37:43.966Z,14.70
2023-02-02T08:40:13.488Z,12.13
2023-02-02T08:42:43.572Z,12.73
2023-02-02T08:46:12.663Z,11.13
2023-02-02T08:48:11.303Z,12.73
2023-02-02T08:50:40.259Z,13.67
2023-02-02T08:53:08.043Z,11.40
2023-02-02T08:55:36.044Z,11.00
2023-02-02T08:58:25.823Z,12.53
2023-02-02T09:26:29.051Z,9.50
2023-02-02T09:28:58.389Z,7.83
2023-02-02T09:31:26.988Z,7.97
2023-02-02T09:33:54.672Z,9.10
2023-02-02T09:36:24.157Z,11.83
2023-02-02T09:38:52.279Z,11.90
2023-02-02T09:42:06.781Z,12.07
2023-02-02T09:44:56.755Z,7.27
2023-02-02T09:47:31.247Z,6.83
2023-02-02T09:50:04.020Z,6.80
2023-02-02T09:52:37.979Z,6.87
2023-02-02T09:55:13.057Z,5.77
2023-02-02T09:57:46.426Z,6.13
2023-02-02T10:00:28.561Z,4.70
2023-02-02T10:02:59.749Z,5.20
2023-02-02T10:05:35.206Z,4.40
2023-02-02T10:08:08.440Z,5.30
2023-02-02T10:10:41.985Z,6.00
2023-02-02T10:13:16.981Z,4.97
2023-02-02T10:15:51.605Z,3.87
2023-02-02T10:18:24.121Z,3.67
2023-02-02T10:20:57.187Z,4.07
2023-02-02T10:23:28.811Z,4.77
2023-02-02T10:25:58.728Z,5.93
2023-02-02T10:28:42.156Z,5.20
2023-02-02T10:31:19.300Z,5.50
2023-02-02T10:34:02.253Z,8.50
2023-02-02T10:36:37.818Z,6.60
2023-02-02T10:39:17.194Z,14.67
2023-02-02T10:41:55.891Z,20.13
2023-02-02T10:44:35.641Z,22.57
2023-02-02T10:47:07.164Z,19.33
2023-02-02T10:49:36.610Z,28.20
2023-02-02T10:52:14.481Z,28.07
2023-02-02T10:54:57.948Z,21.00
2023-02-02T10:57:36.209Z,54.43
2023-02-02T11:00:13.269Z,53.40
2023-02-02T11:02:40.848Z,52.17
2023-02-02T11:05:33.835Z,45.33
2023-02-02T11:08:01.430Z,48.33
2023-02-02T11:10:29.379Z,36.13
2023-02-02T11:13:01.798Z,43.57
2023-02-02T11:15:32.043Z,29.03
2023-02-02T11:18:15.877Z,34.70
2023-02-02T11:20:46.441Z,44.43
2023-02-02T11:23:19.988Z,35.90
2023-02-02T11:25:57.517Z,30.80
2023-02-02T11:28:30.219Z,30.57
2023-02-02T11:30:59.511Z,34.40
2023-02-02T11:33:29.617Z,30.43
2023-02-02T11:35:58.962Z,28.47
2023-02-02T11:38:27.434Z,29.63
2023-02-02T11:41:00.863Z,30.53
2023-02-02T11:43:31.495Z,40.00
2023-02-02T11:46:03.489Z,33.93
2023-02-02T11:48:35.698Z,41.30
2023-02-02T11:51:04.651Z,40.40
2023-02-02T11:53:35.113Z,49.20
2023-02-02T11:56:06.634Z,45.67
2023-02-02T11:58:45.403Z,46.60
2023-02-02T12:01:25.381Z,44.20
2023-02-02T12:03:54.028Z,43.17
2023-02-02T12:06:23.189Z,35.43
2023-02-02T12:08:51.073Z,42.13
2023-02-02T12:11:33.701Z,45.83
2023-02-02T12:14:12.474Z,38.23
2023-02-02T12:16:53.569Z,14.97
2023-02-02T12:19:36.029Z,30.10
2023-02-02T12:22:11.575Z,27.33
2023-02-02T12:24:53.264Z,35.97
2023-02-02T12:27:30.472Z,40.90
2023-02-02T12:30:17.692Z,27.73
2023-02-02T12:33:00.303Z,43.30
2023-02-02T12:35:50.425Z,20.30
2023-02-02T12:38:36.094Z,22.03
2023-02-02T12:41:22.690Z,14.20
2023-02-02T12:43:56.845Z,10.93
2023-02-02T12:46:38.716Z,11.33
2023-02-02T12:49:26.767Z,7.80
2023-02-02T12:52:17.469Z,8.23
2023-02-02T12:55:15.555Z,11.27
2023-02-02T12:57:53.322Z,14.63
2023-02-02T13:00:38.414Z,16.10
2023-02-02T13:03:21.241Z,13.07
2023-02-02T13:06:03.644Z,14.80
2023-02-02T13:08:38.898Z,17.00
2023-02-02T13:11:29.749Z,19.93
2023-02-02T13:14:01.057Z,15.40
2023-02-02T13:16:32.515Z,15.43
2023-02-02T13:19:03.520Z,8.60
2023-02-02T13:21:33.700Z,16.80
2023-02-02T13:24:06.246Z,21.70
2023-02-02T13:26:38.876Z,21.27
2023-02-02T13:29:09.912Z,38.97
2023-02-02T13:31:43.276Z,29.57
2023-02-02T13:34:18.571Z,29.37
2023-02-02T13:36:51.695Z,28.57
2023-02-02T13:39:23.329Z,24.77
2023-02-02T13:41:52.528Z,10.23
2023-02-02T13:44:26.111Z,6.33
2023-02-02T13:47:00.421Z,11.03
2023-02-02T13:49:31.333Z,8.77
2023-02-02T13:52:36.727Z,16.07
2023-02-02T13:55:34.921Z,8.50
2023-02-02T13:58:42.414Z,7.87
2023-02-02T14:01:13.997Z,9.27
2023-02-02T14:03:43.726Z,9.47
2023-02-02T14:06:15.174Z,6.27
2023-02-02T14:08:50.089Z,10.97
2023-02-02T14:11:22.750Z,5.97
2023-02-02T14:14:11.659Z,43.80
2023-02-02T14:16:51.339Z,42.80
2023-02-02T14:19:34.938Z,37.97
2023-02-02T14:22:18.581Z,40.07
2023-02-02T14:24:50.081Z,42.40
2023-02-02T14:27:54.768Z,16.43
2023-02-02T14:30:34.458Z,7.23
2023-02-02T14:33:25.701Z,8.60
2023-02-02T14:36:01.247Z,4.50
2023-02-02T14:38:59.049Z,3.80
2023-02-02T14:41:56.314Z,5.20
2023-02-02T14:44:23.999Z,6.47
2023-02-02T14:46:51.574Z,4.57
2023-02-02T14:49:23.941Z,4.23
2023-02-02T14:51:58.160Z,5.27
2023-02-02T14:54:30.533Z,4.73
2023-02-02T14:57:03.339Z,4.63
2023-02-02T14:59:35.100Z,5.00
2023-02-02T15:02:09.779Z,3.20
2023-02-02T15:04:37.592Z,4.30
2023-02-02T15:07:38.218Z,10.97
2023-02-02T15:10:06.737Z,13.37
2023-02-02T15:12:39.235Z,14.30
2023-02-02T15:15:16.439Z,17.37
2023-02-02T15:18:07.572Z,12.60
2023-02-02T15:20:42.827Z,15.70
2023-02-02T15:23:24.340Z,19.67
2023-02-02T15:25:57.762Z,15.17
2023-02-02T15:28:37.929Z,15.57
2023-02-02T15:31:15.263Z,13.53
2023-02-02T15:33:45.843Z,15.93
2023-02-02T15:36:17.488Z,15.20
2023-02-02T15:38:48.599Z,13.33
2023-02-02T15:41:21.069Z,16.80
2023-02-02T15:43:50.226Z,19.97
2023-02-02T15:46:24.393Z,22.83
2023-02-02T15:49:34.834Z,29.53
2023-02-02T15:52:12.380Z,25.90
2023-02-02T15:54:49.215Z,17.90
2023-02-02T15:57:25.078Z,19.07
2023-02-02T15:59:54.018Z,20.80
2023-02-02T16:02:27.525Z,20.60
2023-02-02T16:04:55.013Z,22.73
2023-02-02T16:07:29.487Z,19.27
2023-02-02T16:09:57.509Z,21.87
2023-02-02T16:12:26.069Z,17.43
2023-02-02T16:14:56.139Z,19.10
2023-02-02T16:17:28.356Z,22.57
2023-02-02T16:20:00.311Z,21.30
2023-02-02T16:22:30.590Z,24.13
2023-02-02T16:25:01.901Z,19.53
2023-02-02T16:27:31.205Z,19.43
2023-02-02T16:30:04.987Z,19.97
2023-02-02T16:32:34.630Z,19.93
2023-02-02T16:35:07.452Z,15.27
2023-02-02T16:37:36.352Z,18.87
2023-02-02T16:40:19.600Z,16.67
2023-02-02T16:42:47.877Z,16.83
2023-02-02T16:45:35.078Z,25.70
2023-02-02T16:48:27.689Z,23.63
2023-02-02T16:51:06.215Z,26.50
2023-02-02T16:53:34.570Z,18.07
2023-02-02T16:56:02.671Z,21.30
2023-02-02T16:58:30.361Z,20.93
2023-02-02T17:01:14.864Z,15.77
2023-02-02T17:03:50.183Z,12.77
2023-02-02T17:06:18.397Z,12.80
2023-02-02T17:08:45.877Z,14.57
2023-02-02T17:11:22.872Z,16.57
2023-02-02T17:13:51.770Z,18.43
2023-02-02T17:16:22.691Z,20.63
2023-02-02T17:18:50.393Z,23.30
2023-02-02T17:21:20.782Z,17.47
2023-02-02T17:23:51.216Z,16.07
2023-02-02T17:26:19.612Z,11.57
2023-02-02T17:28:47.756Z,10.50
2023-02-02T17:31:17.218Z,12.77
2023-02-02T17:33:46.091Z,17.27
2023-02-02T17:36:14.195Z,16.90
2023-02-02T17:38:41.696Z,13.43
2023-02-02T17:41:14.115Z,8.70
2023-02-02T17:43:42.718Z,16.67
2023-02-02T17:46:12.353Z,7.30
2023-02-02T17:48:39.858Z,6.30
2023-02-02T17:51:14.957Z,8.30
2023-02-02T17:53:42.596Z,12.90
2023-02-02T17:56:10.035Z,12.60
2023-02-02T17:58:37.489Z,12.23
2023-02-02T18:01:05.427Z,19.20
2023-02-02T18:03:36.132Z,8.73
2023-02-02T18:06:04.081Z,15.60
2023-02-02T18:08:34.335Z,14.63
2023-02-02T18:11:02.137Z,11.43
2023-02-02T18:13:29.819Z,11.93
2023-02-02T18:15:59.394Z,6.70
2023-02-02T18:18:29.632Z,5.70
2023-02-02T18:20:58.466Z,6.97
2023-02-02T18:23:25.956Z,3.60
2023-02-02T18:25:54.790Z,4.17
2023-02-02T18:28:22.406Z,3.17
2023-02-02T18:30:49.982Z,4.30
2023-02-02T18:33:19.709Z,5.27
2023-02-02T18:35:48.764Z,5.70
2023-02-02T18:38:16.476Z,11.73
2023-02-02T18:40:43.942Z,16.10
2023-02-02T18:43:12.736Z,16.43
2023-02-02T18:45:40.204Z,15.33
2023-02-02T18:48:07.712Z,13.07
2023-02-02T18:50:35.185Z,11.63
2023-02-02T18:53:02.645Z,12.83
2023-02-02T18:55:30.120Z,11.97
2023-02-02T18:57:57.613Z,10.00
2023-02-02T19:00:27.494Z,10.30
2023-02-02T19:02:54.940Z,9.00
2023-02-02T19:05:40.142Z,10.90
2023-02-02T19:08:07.983Z,9.33
2023-02-02T19:10:35.477Z,13.37
2023-02-02T19:13:14.880Z,12.87
2023-02-02T19:15:43.761Z,15.97
2023-02-02T19:18:15.771Z,17.57
2023-02-02T19:20:43.907Z,10.63
2023-02-02T19:23:13.579Z,8.93
2023-02-02T19:25:42.089Z,11.30
2023-02-02T19:28:20.486Z,9.13
2023-02-02T19:30:50.132Z,8.13
2023-02-02T19:33:17.829Z,7.80
2023-02-02T19:35:49.070Z,8.57
2023-02-02T19:38:17.730Z,8.30
2023-02-02T19:40:45.542Z,8.37
2023-02-02T19:43:25.153Z,9.30
2023-02-02T19:45:54.601Z,17.40
2023-02-02T19:48:26.235Z,9.13
2023-02-02T19:50:55.056Z,8.17
2023-02-02T19:53:24.789Z,9.47
2023-02-02T19:55:53.253Z,8.00
2023-02-02T19:58:22.996Z,8.10
2023-02-02T20:00:51.890Z,8.97
2023-02-02T20:03:23.699Z,8.33
2023-02-02T20:05:53.239Z,7.60
2023-02-02T20:08:24.695Z,7.57
2023-02-02T20:10:53.387Z,6.13
2023-02-02T20:13:23.375Z,8.73
2023-02-02T20:15:54.672Z,9.20
2023-02-02T20:18:33.759Z,8.80
2023-02-02T20:21:01.253Z,9.23
2023-02-02T20:23:39.756Z,7.47
2023-02-02T20:26:23.577Z,9.00
2023-02-02T20:28:53.084Z,5.73
2023-02-02T20:31:24.247Z,5.83
2023-02-02T20:33:55.518Z,5.80
2023-02-02T20:36:33.577Z,6.00
2023-02-02T20:39:17.200Z,4.90
2023-02-02T20:41:44.719Z,6.80
2023-02-02T20:44:12.536Z,14.70
2023-02-02T20:46:40.226Z,10.20
2023-02-02T20:49:09.015Z,9.77
2023-02-02T20:51:40.403Z,11.73
2023-02-02T20:54:08.380Z,13.00
2023-02-02T20:56:36.051Z,10.37
2023-02-02T20:59:06.397Z,11.30
2023-02-02T21:01:34.731Z,11.50
2023-02-02T21:04:05.276Z,10.03
2023-02-02T21:06:34.117Z,20.57
2023-02-02T21:09:01.662Z,24.67
2023-02-02T21:11:29.117Z,15.37
2023-02-02T21:13:57.381Z,13.00
2023-02-02T21:16:24.901Z,11.80
2023-02-02T21:18:52.553Z,15.60
2023-02-02T21:21:22.438Z,17.23
2023-02-02T21:23:51.922Z,14.30
2023-02-02T21:26:21.915Z,15.40
2023-02-02T21:28:49.541Z,15.53
2023-02-02T21:31:18.634Z,16.27
2023-02-02T21:33:47.540Z,14.70
2023-02-02T21:36:34.390Z,14.07
2023-02-02T21:39:16.319Z,14.43
2023-02-02T21:41:43.839Z,14.53
2023-02-02T21:44:15.489Z,15.90
2023-02-02T21:46:43.314Z,12.93
2023-02-02T21:49:22.599Z,12.70
2023-02-02T21:51:50.511Z,13.37
2023-02-02T21:54:24.835Z,9.27
2023-02-02T21:56:53.055Z,10.70
2023-02-02T21:59:22.532Z,10.57
2023-02-02T22:01:51.473Z,10.97
2023-02-02T22:04:21.831Z,10.77
2023-02-02T22:06:51.485Z,7.87
2023-02-02T22:09:21.862Z,9.27
2023-02-02T22:11:53.470Z,8.50
2023-02-02T22:14:25.138Z,8.80
2023-02-02T22:16:53.976Z,7.83
2023-02-02T22:19:26.815Z,8.43
2023-02-02T22:22:03.607Z,12.53
2023-02-02T22:24:31.870Z,13.90
2023-02-02T22:27:01.015Z,15.50
2023-02-02T22:29:32.780Z,15.57
2023-02-02T22:32:00.280Z,14.83
2023-02-02T22:34:27.815Z,20.33
2023-02-02T22:36:55.263Z,18.23
2023-02-02T22:39:22.721Z,17.00
2023-02-02T22:41:50.159Z,17.20
2023-02-02T22:44:18.942Z,18.03
2023-02-02T22:46:46.535Z,17.03
2023-02-02T22:49:32.544Z,16.17
2023-02-02T22:52:00.006Z,24.40
2023-02-02T22:54:27.477Z,22.70
2023-02-02T22:56:54.942Z,20.80
2023-02-02T22:59:23.720Z,25.83
2023-02-02T23:01:51.164Z,21.00
2023-02-02T23:04:18.633Z,22.20
2023-02-02T23:06:46.102Z,16.57
2023-02-02T23:09:13.552Z,14.17
2023-02-02T23:11:41.055Z,15.30
2023-02-02T23:14:08.565Z,24.67
2023-02-02T23:16:37.361Z,28.37
2023-02-02T23:19:05.301Z,24.57
2023-02-02T23:21:32.790Z,33.13
2023-02-02T23:24:00.281Z,23.43
2023-02-02T23:26:27.817Z,24.10
2023-02-02T23:28:55.316Z,22.63
2023-02-02T23:31:22.853Z,17.57
2023-02-02T23:33:51.747Z,15.43
2023-02-02T23:36:19.242Z,14.73
2023-02-02T23:38:46.705Z,13.60
2023-02-02T23:41:14.159Z,13.83
2023-02-02T23:43:42.543Z,8.60
2023-02-02T23:46:10.078Z,13.83
2023-02-02T23:48:37.979Z,12.50
2023-02-02T23:51:07.177Z,10.40
2023-02-02T23:53:34.833Z,10.33
2023-02-02T23:56:02.293Z,11.47
2023-02-02T23:58:29.738Z,10.80
